sensor_id;sensor_type;location;lat;lon;timestamp;P1;durP1;ratioP1;P2;durP2;ratioP2
13832;SDS011;6987;19.472;-99.276;2023-08-24T00:00:31;1.73;;;1.63;;
13832;SDS011;6987;19.472;-99.276;2023-08-24T00:03:01;2.88;;;2.10;;
13832;SDS011;6987;19.472;-99.276;2023-08-24T00:05:32;1.75;;;1.63;;
13832;SDS011;6987;19.472;-99.276;2023-08-24T00:08:03;2.58;;;1.48;;
13832;SDS011;6987;19.472;-99.276;2023-08-24T00:10:32;5.05;;;1.63;;
13832;SDS011;6987;19.472;-99.276;2023-08-24T00:13:03;4.07;;;1.80;;
13832;SDS011;6987;19.472;-99.276;2023-08-24T00:15:33;1.77;;;1.67;;
13832;SDS011;6987;19.472;-99.276;2023-08-24T00:18:02;4.68;;;1.80;;
13832;SDS011;6987;19.472;-99.276;2023-08-24T00:20:30;3.05;;;1.90;;
13832;SDS011;6987;19.472;-99.276;2023-08-24T00:23:00;2.28;;;1.40;;
13832;SDS011;6987;19.472;-99.276;2023-08-24T00:25:29;2.05;;;1.45;;
13832;SDS011;6987;19.472;-99.276;2023-08-24T00:27:58;1.63;;;1.52;;
13832;SDS011;6987;19.472;-99.276;2023-08-24T00:30:29;2.78;;;1.60;;
13832;SDS011;6987;19.472;-99.276;2023-08-24T00:32:58;1.70;;;1.60;;
13832;SDS011;6987;19.472;-99.276;2023-08-24T00:35:28;3.80;;;1.80;;
13832;SDS011;6987;19.472;-99.276;2023-08-24T00:37:57;4.13;;;1.95;;
13832;SDS011;6987;19.472;-99.276;2023-08-24T00:40:26;2.28;;;1.95;;
13832;SDS011;6987;19.472;-99.276;2023-08-24T00:42:55;3.13;;;1.92;;
13832;SDS011;6987;19.472;-99.276;2023-08-24T00:45:25;3.70;;;2.00;;
13832;SDS011;6987;19.472;-99.276;2023-08-24T00:47:55;2.10;;;1.90;;
13832;SDS011;6987;19.472;-99.276;2023-08-24T00:50:24;1.92;;;1.58;;
13832;SDS011;6987;19.472;-99.276;2023-08-24T00:52:53;3.38;;;1.85;;
13832;SDS011;6987;19.472;-99.276;2023-08-24T00:55:22;2.03;;;1.92;;
13832;SDS011;6987;19.472;-99.276;2023-08-24T00:57:51;2.97;;;1.50;;
13832;SDS011;6987;19.472;-99.276;2023-08-24T01:00:21;2.70;;;1.90;;
13832;SDS011;6987;19.472;-99.276;2023-08-24T01:02:51;3.30;;;2.03;;
13832;SDS011;6987;19.472;-99.276;2023-08-24T01:05:21;1.92;;;1.80;;
13832;SDS011;6987;19.472;-99.276;2023-08-24T01:07:49;3.15;;;2.00;;
13832;SDS011;6987;19.472;-99.276;2023-08-24T01:10:19;4.22;;;2.17;;
13832;SDS011;6987;19.472;-99.276;2023-08-24T01:12:52;3.90;;;2.20;;
13832;SDS011;6987;19.472;-99.276;2023-08-24T01:15:24;1.80;;;1.70;;
13832;SDS011;6987;19.472;-99.276;2023-08-24T01:17:55;2.78;;;2.00;;
13832;SDS011;6987;19.472;-99.276;2023-08-24T01:20:28;1.90;;;1.80;;
13832;SDS011;6987;19.472;-99.276;2023-08-24T01:23:02;2.38;;;1.90;;
13832;SDS011;6987;19.472;-99.276;2023-08-24T01:25:34;1.95;;;1.63;;
13832;SDS011;6987;19.472;-99.276;2023-08-24T01:28:08;1.65;;;1.55;;
13832;SDS011;6987;19.472;-99.276;2023-08-24T01:30:37;1.98;;;1.88;;
13832;SDS011;6987;19.472;-99.276;2023-08-24T01:33:08;1.33;;;1.33;;
13832;SDS011;6987;19.472;-99.276;2023-08-24T01:35:37;1.50;;;1.40;;
13832;SDS011;6987;19.472;-99.276;2023-08-24T01:38:07;1.60;;;1.50;;
13832;SDS011;6987;19.472;-99.276;2023-08-24T01:40:42;2.20;;;2.10;;
13832;SDS011;6987;19.472;-99.276;2023-08-24T01:43:15;1.63;;;1.52;;
13832;SDS011;6987;19.472;-99.276;2023-08-24T01:45:45;3.45;;;1.65;;
13832;SDS011;6987;19.472;-99.276;2023-08-24T01:48:15;3.00;;;1.73;;
13832;SDS011;6987;19.472;-99.276;2023-08-24T01:50:44;2.05;;;1.95;;
13832;SDS011;6987;19.472;-99.276;2023-08-24T01:53:15;3.00;;;1.75;;
13832;SDS011;6987;19.472;-99.276;2023-08-24T01:55:44;4.60;;;1.70;;
13832;SDS011;6987;19.472;-99.276;2023-08-24T01:58:15;2.20;;;2.00;;
13832;SDS011;6987;19.472;-99.276;2023-08-24T02:00:44;2.38;;;2.17;;
13832;SDS011;6987;19.472;-99.276;2023-08-24T02:03:13;1.83;;;1.70;;
13832;SDS011;6987;19.472;-99.276;2023-08-24T02:05:42;2.90;;;1.80;;
13832;SDS011;6987;19.472;-99.276;2023-08-24T02:08:12;1.85;;;1.75;;
13832;SDS011;6987;19.472;-99.276;2023-08-24T02:10:40;2.53;;;2.13;;
13832;SDS011;6987;19.472;-99.276;2023-08-24T02:13:09;1.80;;;1.70;;
13832;SDS011;6987;19.472;-99.276;2023-08-24T02:15:40;2.70;;;2.10;;
13832;SDS011;6987;19.472;-99.276;2023-08-24T02:18:09;1.88;;;1.77;;
13832;SDS011;6987;19.472;-99.276;2023-08-24T02:20:38;3.22;;;2.22;;
13832;SDS011;6987;19.472;-99.276;2023-08-24T02:23:07;2.70;;;1.90;;
13832;SDS011;6987;19.472;-99.276;2023-08-24T02:25:41;3.35;;;1.77;;
13832;SDS011;6987;19.472;-99.276;2023-08-24T02:28:10;3.88;;;2.40;;
13832;SDS011;6987;19.472;-99.276;2023-08-24T02:30:41;2.42;;;2.22;;
13832;SDS011;6987;19.472;-99.276;2023-08-24T02:33:10;2.80;;;2.30;;
13832;SDS011;6987;19.472;-99.276;2023-08-24T02:35:38;2.75;;;2.50;;
13832;SDS011;6987;19.472;-99.276;2023-08-24T02:38:09;3.28;;;3.00;;
13832;SDS011;6987;19.472;-99.276;2023-08-24T02:40:38;3.30;;;3.08;;
13832;SDS011;6987;19.472;-99.276;2023-08-24T02:43:07;3.67;;;2.35;;
13832;SDS011;6987;19.472;-99.276;2023-08-24T02:45:36;2.88;;;2.65;;
13832;SDS011;6987;19.472;-99.276;2023-08-24T02:48:07;3.03;;;2.33;;
13832;SDS011;6987;19.472;-99.276;2023-08-24T02:50:36;2.78;;;2.50;;
13832;SDS011;6987;19.472;-99.276;2023-08-24T02:53:05;2.20;;;2.00;;
13832;SDS011;6987;19.472;-99.276;2023-08-24T02:55:34;2.05;;;1.98;;
13832;SDS011;6987;19.472;-99.276;2023-08-24T02:58:03;2.60;;;2.50;;
13832;SDS011;6987;19.472;-99.276;2023-08-24T03:00:32;4.57;;;2.88;;
13832;SDS011;6987;19.472;-99.276;2023-08-24T03:03:01;2.50;;;2.33;;
13832;SDS011;6987;19.472;-99.276;2023-08-24T03:05:33;2.47;;;2.35;;
13832;SDS011;6987;19.472;-99.276;2023-08-24T03:08:02;3.65;;;2.80;;
13832;SDS011;6987;19.472;-99.276;2023-08-24T03:10:32;6.10;;;2.90;;
13832;SDS011;6987;19.472;-99.276;2023-08-24T03:13:03;3.10;;;2.80;;
13832;SDS011;6987;19.472;-99.276;2023-08-24T03:15:32;3.53;;;2.63;;
13832;SDS011;6987;19.472;-99.276;2023-08-24T03:18:03;2.83;;;2.63;;
13832;SDS011;6987;19.472;-99.276;2023-08-24T03:20:35;3.00;;;2.75;;
13832;SDS011;6987;19.472;-99.276;2023-08-24T03:23:04;2.38;;;2.28;;
13832;SDS011;6987;19.472;-99.276;2023-08-24T03:25:35;2.85;;;2.65;;
13832;SDS011;6987;19.472;-99.276;2023-08-24T03:28:04;5.18;;;2.97;;
13832;SDS011;6987;19.472;-99.276;2023-08-24T03:30:34;5.05;;;2.47;;
13832;SDS011;6987;19.472;-99.276;2023-08-24T03:33:05;2.75;;;2.22;;
13832;SDS011;6987;19.472;-99.276;2023-08-24T03:35:36;3.28;;;2.20;;
13832;SDS011;6987;19.472;-99.276;2023-08-24T03:38:05;2.05;;;1.65;;
13832;SDS011;6987;19.472;-99.276;2023-08-24T03:40:34;3.38;;;1.88;;
13832;SDS011;6987;19.472;-99.276;2023-08-24T03:43:03;1.95;;;1.85;;
13832;SDS011;6987;19.472;-99.276;2023-08-24T03:45:32;2.00;;;1.90;;
13832;SDS011;6987;19.472;-99.276;2023-08-24T03:48:01;2.08;;;1.98;;
13832;SDS011;6987;19.472;-99.276;2023-08-24T03:50:30;2.03;;;1.92;;
13832;SDS011;6987;19.472;-99.276;2023-08-24T03:53:01;2.15;;;2.05;;
13832;SDS011;6987;19.472;-99.276;2023-08-24T03:55:30;2.97;;;1.50;;
13832;SDS011;6987;19.472;-99.276;2023-08-24T03:57:59;2.35;;;1.70;;
13832;SDS011;6987;19.472;-99.276;2023-08-24T04:00:29;1.80;;;1.70;;
13832;SDS011;6987;19.472;-99.276;2023-08-24T04:02:58;2.28;;;1.70;;
13832;SDS011;6987;19.472;-99.276;2023-08-24T04:05:28;1.63;;;1.60;;
13832;SDS011;6987;19.472;-99.276;2023-08-24T04:07:57;2.92;;;1.33;;
13832;SDS011;6987;19.472;-99.276;2023-08-24T04:10:28;3.08;;;1.70;;
13832;SDS011;6987;19.472;-99.276;2023-08-24T04:12:57;2.80;;;1.63;;
13832;SDS011;6987;19.472;-99.276;2023-08-24T04:15:26;1.50;;;1.50;;
13832;SDS011;6987;19.472;-99.276;2023-08-24T04:17:55;1.63;;;1.60;;
13832;SDS011;6987;19.472;-99.276;2023-08-24T04:20:24;1.80;;;1.70;;
13832;SDS011;6987;19.472;-99.276;2023-08-24T04:22:53;2.38;;;2.17;;
13832;SDS011;6987;19.472;-99.276;2023-08-24T04:25:23;2.08;;;1.75;;
13832;SDS011;6987;19.472;-99.276;2023-08-24T04:27:53;2.28;;;2.17;;
13832;SDS011;6987;19.472;-99.276;2023-08-24T04:30:22;2.65;;;2.38;;
13832;SDS011;6987;19.472;-99.276;2023-08-24T04:32:51;2.47;;;2.00;;
13832;SDS011;6987;19.472;-99.276;2023-08-24T04:35:20;3.00;;;2.17;;
13832;SDS011;6987;19.472;-99.276;2023-08-24T04:37:49;4.07;;;2.20;;
13832;SDS011;6987;19.472;-99.276;2023-08-24T04:40:18;2.20;;;2.10;;
13832;SDS011;6987;19.472;-99.276;2023-08-24T04:42:47;2.58;;;2.38;;
13832;SDS011;6987;19.472;-99.276;2023-08-24T04:45:18;2.72;;;1.95;;
13832;SDS011;6987;19.472;-99.276;2023-08-24T04:47:47;2.58;;;2.38;;
13832;SDS011;6987;19.472;-99.276;2023-08-24T04:50:16;3.88;;;2.20;;
13832;SDS011;6987;19.472;-99.276;2023-08-24T04:52:45;2.17;;;2.08;;
13832;SDS011;6987;19.472;-99.276;2023-08-24T04:55:14;2.63;;;2.50;;
13832;SDS011;6987;19.472;-99.276;2023-08-24T04:57:43;3.08;;;1.83;;
13832;SDS011;6987;19.472;-99.276;2023-08-24T05:00:13;1.77;;;1.67;;
13832;SDS011;6987;19.472;-99.276;2023-08-24T05:02:44;2.05;;;1.95;;
13832;SDS011;6987;19.472;-99.276;2023-08-24T05:05:13;2.60;;;2.40;;
13832;SDS011;6987;19.472;-99.276;2023-08-24T05:07:43;2.35;;;2.25;;
13832;SDS011;6987;19.472;-99.276;2023-08-24T05:10:11;2.40;;;1.98;;
13832;SDS011;6987;19.472;-99.276;2023-08-24T05:12:40;2.10;;;2.00;;
13832;SDS011;6987;19.472;-99.276;2023-08-24T05:15:09;1.95;;;1.90;;
13832;SDS011;6987;19.472;-99.276;2023-08-24T05:17:39;2.10;;;2.00;;
13832;SDS011;6987;19.472;-99.276;2023-08-24T05:20:10;1.83;;;1.73;;
13832;SDS011;6987;19.472;-99.276;2023-08-24T05:22:39;2.38;;;1.83;;
13832;SDS011;6987;19.472;-99.276;2023-08-24T05:25:08;2.00;;;1.90;;
13832;SDS011;6987;19.472;-99.276;2023-08-24T05:27:37;2.45;;;1.95;;
13832;SDS011;6987;19.472;-99.276;2023-08-24T05:30:06;2.13;;;2.00;;
13832;SDS011;6987;19.472;-99.276;2023-08-24T05:32:36;4.13;;;2.30;;
13832;SDS011;6987;19.472;-99.276;2023-08-24T05:35:12;2.38;;;2.17;;
13832;SDS011;6987;19.472;-99.276;2023-08-24T05:37:41;4.72;;;1.98;;
13832;SDS011;6987;19.472;-99.276;2023-08-24T05:40:11;2.00;;;1.90;;
13832;SDS011;6987;19.472;-99.276;2023-08-24T05:42:40;2.10;;;2.00;;
13832;SDS011;6987;19.472;-99.276;2023-08-24T05:45:09;2.92;;;2.22;;
13832;SDS011;6987;19.472;-99.276;2023-08-24T05:47:39;3.33;;;2.38;;
13832;SDS011;6987;19.472;-99.276;2023-08-24T05:50:08;2.17;;;2.08;;
13832;SDS011;6987;19.472;-99.276;2023-08-24T05:52:40;2.30;;;2.20;;
13832;SDS011;6987;19.472;-99.276;2023-08-24T05:55:09;2.15;;;1.95;;
13832;SDS011;6987;19.472;-99.276;2023-08-24T05:57:38;3.00;;;2.20;;
13832;SDS011;6987;19.472;-99.276;2023-08-24T06:00:07;2.17;;;2.08;;
13832;SDS011;6987;19.472;-99.276;2023-08-24T06:02:37;2.08;;;1.98;;
13832;SDS011;6987;19.472;-99.276;2023-08-24T06:05:06;2.38;;;2.17;;
13832;SDS011;6987;19.472;-99.276;2023-08-24T06:07:35;2.50;;;2.30;;
13832;SDS011;6987;19.472;-99.276;2023-08-24T06:10:06;2.13;;;2.03;;
13832;SDS011;6987;19.472;-99.276;2023-08-24T06:12:35;2.05;;;1.85;;
13832;SDS011;6987;19.472;-99.276;2023-08-24T06:15:04;2.00;;;1.90;;
13832;SDS011;6987;19.472;-99.276;2023-08-24T06:17:35;2.22;;;2.05;;
13832;SDS011;6987;19.472;-99.276;2023-08-24T06:20:05;2.00;;;1.90;;
13832;SDS011;6987;19.472;-99.276;2023-08-24T06:22:36;2.80;;;1.70;;
13832;SDS011;6987;19.472;-99.276;2023-08-24T06:25:07;2.70;;;1.63;;
13832;SDS011;6987;19.472;-99.276;2023-08-24T06:27:36;2.30;;;2.20;;
13832;SDS011;6987;19.472;-99.276;2023-08-24T06:30:06;1.92;;;1.83;;
13832;SDS011;6987;19.472;-99.276;2023-08-24T06:32:35;2.65;;;2.13;;
13832;SDS011;6987;19.472;-99.276;2023-08-24T06:35:05;1.90;;;1.80;;
13832;SDS011;6987;19.472;-99.276;2023-08-24T06:37:34;2.10;;;2.00;;
13832;SDS011;6987;19.472;-99.276;2023-08-24T06:40:04;1.73;;;1.63;;
13832;SDS011;6987;19.472;-99.276;2023-08-24T06:42:36;2.15;;;1.92;;
13832;SDS011;6987;19.472;-99.276;2023-08-24T06:45:05;3.47;;;1.92;;
13832;SDS011;6987;19.472;-99.276;2023-08-24T06:47:35;2.42;;;2.20;;
13832;SDS011;6987;19.472;-99.276;2023-08-24T06:50:05;1.98;;;1.77;;
13832;SDS011;6987;19.472;-99.276;2023-08-24T06:52:34;2.35;;;2.20;;
13832;SDS011;6987;19.472;-99.276;2023-08-24T06:55:03;1.90;;;1.80;;
13832;SDS011;6987;19.472;-99.276;2023-08-24T06:57:32;2.45;;;2.25;;
13832;SDS011;6987;19.472;-99.276;2023-08-24T07:00:03;3.53;;;2.20;;
13832;SDS011;6987;19.472;-99.276;2023-08-24T07:02:35;2.30;;;2.10;;
13832;SDS011;6987;19.472;-99.276;2023-08-24T07:05:04;2.58;;;2.38;;
13832;SDS011;6987;19.472;-99.276;2023-08-24T07:07:34;2.00;;;1.90;;
13832;SDS011;6987;19.472;-99.276;2023-08-24T07:10:03;3.00;;;2.20;;
13832;SDS011;6987;19.472;-99.276;2023-08-24T07:12:32;2.67;;;2.08;;
13832;SDS011;6987;19.472;-99.276;2023-08-24T07:15:03;3.50;;;2.15;;
13832;SDS011;6987;19.472;-99.276;2023-08-24T07:17:32;3.92;;;1.88;;
13832;SDS011;6987;19.472;-99.276;2023-08-24T07:20:01;2.13;;;2.03;;
13832;SDS011;6987;19.472;-99.276;2023-08-24T07:22:31;3.20;;;2.08;;
13832;SDS011;6987;19.472;-99.276;2023-08-24T07:25:00;3.38;;;1.77;;
13832;SDS011;6987;19.472;-99.276;2023-08-24T07:27:33;2.22;;;2.05;;
13832;SDS011;6987;19.472;-99.276;2023-08-24T07:30:05;2.38;;;2.17;;
13832;SDS011;6987;19.472;-99.276;2023-08-24T07:32:35;2.13;;;2.03;;
13832;SDS011;6987;19.472;-99.276;2023-08-24T07:35:04;2.30;;;2.10;;
13832;SDS011;6987;19.472;-99.276;2023-08-24T07:37:33;2.15;;;2.00;;
13832;SDS011;6987;19.472;-99.276;2023-08-24T07:40:08;3.22;;;2.20;;
13832;SDS011;6987;19.472;-99.276;2023-08-24T07:42:46;2.67;;;2.10;;
13832;SDS011;6987;19.472;-99.276;2023-08-24T07:45:18;2.75;;;2.30;;
13832;SDS011;6987;19.472;-99.276;2023-08-24T07:47:48;2.40;;;2.20;;
13832;SDS011;6987;19.472;-99.276;2023-08-24T07:50:20;2.10;;;1.98;;
13832;SDS011;6987;19.472;-99.276;2023-08-24T07:52:49;2.30;;;2.03;;
13832;SDS011;6987;19.472;-99.276;2023-08-24T07:55:18;3.42;;;2.13;;
13832;SDS011;6987;19.472;-99.276;2023-08-24T07:57:47;2.20;;;1.95;;
13832;SDS011;6987;19.472;-99.276;2023-08-24T08:00:18;3.15;;;2.25;;
13832;SDS011;6987;19.472;-99.276;2023-08-24T08:02:49;3.72;;;2.33;;
13832;SDS011;6987;19.472;-99.276;2023-08-24T08:05:18;2.10;;;2.00;;
13832;SDS011;6987;19.472;-99.276;2023-08-24T08:10:57;2.30;;;2.20;;
13832;SDS011;6987;19.472;-99.276;2023-08-24T08:13:26;2.13;;;2.03;;
13832;SDS011;6987;19.472;-99.276;2023-08-24T08:16:02;2.10;;;2.00;;
13832;SDS011;6987;19.472;-99.276;2023-08-24T08:18:33;2.17;;;1.92;;
13832;SDS011;6987;19.472;-99.276;2023-08-24T08:21:09;2.20;;;2.10;;
13832;SDS011;6987;19.472;-99.276;2023-08-24T08:23:41;1.80;;;1.73;;
13832;SDS011;6987;19.472;-99.276;2023-08-24T08:26:10;1.90;;;1.80;;
13832;SDS011;6987;19.472;-99.276;2023-08-24T08:28:39;2.35;;;2.15;;
13832;SDS011;6987;19.472;-99.276;2023-08-24T08:31:10;2.42;;;2.30;;
13832;SDS011;6987;19.472;-99.276;2023-08-24T08:33:39;2.22;;;2.13;;
13832;SDS011;6987;19.472;-99.276;2023-08-24T08:36:08;2.45;;;1.90;;
13832;SDS011;6987;19.472;-99.276;2023-08-24T08:38:37;1.73;;;1.63;;
13832;SDS011;6987;19.472;-99.276;2023-08-24T08:41:06;2.72;;;2.53;;
13832;SDS011;6987;19.472;-99.276;2023-08-24T08:43:41;1.90;;;1.80;;
13832;SDS011;6987;19.472;-99.276;2023-08-24T08:46:13;4.03;;;2.03;;
13832;SDS011;6987;19.472;-99.276;2023-08-24T08:48:43;2.45;;;2.33;;
13832;SDS011;6987;19.472;-99.276;2023-08-24T08:51:13;2.47;;;2.28;;
13832;SDS011;6987;19.472;-99.276;2023-08-24T08:56:32;3.17;;;2.20;;
13832;SDS011;6987;19.472;-99.276;2023-08-24T08:59:02;2.33;;;2.20;;
13832;SDS011;6987;19.472;-99.276;2023-08-24T09:06:51;2.92;;;1.98;;
13832;SDS011;6987;19.472;-99.276;2023-08-24T09:09:20;2.28;;;2.13;;
13832;SDS011;6987;19.472;-99.276;2023-08-24T09:11:49;2.20;;;2.10;;
13832;SDS011;6987;19.472;-99.276;2023-08-24T09:14:19;2.35;;;2.00;;
13832;SDS011;6987;19.472;-99.276;2023-08-24T09:16:48;2.47;;;2.08;;
13832;SDS011;6987;19.472;-99.276;2023-08-24T09:19:18;2.70;;;2.50;;
13832;SDS011;6987;19.472;-99.276;2023-08-24T09:21:47;2.22;;;2.08;;
13832;SDS011;6987;19.472;-99.276;2023-08-24T09:24:17;2.97;;;2.80;;
13832;SDS011;6987;19.472;-99.276;2023-08-24T09:26:58;2.92;;;2.72;;
13832;SDS011;6987;19.472;-99.276;2023-08-24T09:29:27;3.08;;;2.88;;
13832;SDS011;6987;19.472;-99.276;2023-08-24T09:31:59;3.88;;;3.58;;
13832;SDS011;6987;19.472;-99.276;2023-08-24T09:34:28;3.60;;;3.30;;
13832;SDS011;6987;19.472;-99.276;2023-08-24T09:36:57;2.90;;;2.70;;
13832;SDS011;6987;19.472;-99.276;2023-08-24T09:39:28;4.22;;;2.85;;
13832;SDS011;6987;19.472;-99.276;2023-08-24T09:42:00;3.22;;;3.03;;
13832;SDS011;6987;19.472;-99.276;2023-08-24T09:44:30;2.45;;;2.35;;
13832;SDS011;6987;19.472;-99.276;2023-08-24T09:46:59;2.53;;;2.33;;
13832;SDS011;6987;19.472;-99.276;2023-08-24T09:49:28;2.22;;;2.13;;
13832;SDS011;6987;19.472;-99.276;2023-08-24T09:51:57;2.92;;;2.72;;
13832;SDS011;6987;19.472;-99.276;2023-08-24T09:54:28;3.28;;;2.97;;
13832;SDS011;6987;19.472;-99.276;2023-08-24T09:56:59;2.83;;;2.67;;
13832;SDS011;6987;19.472;-99.276;2023-08-24T09:59:28;3.45;;;3.25;;
13832;SDS011;6987;19.472;-99.276;2023-08-24T10:02:00;3.00;;;2.80;;
13832;SDS011;6987;19.472;-99.276;2023-08-24T10:04:34;2.97;;;2.65;;
13832;SDS011;6987;19.472;-99.276;2023-08-24T10:07:04;2.85;;;2.65;;
13832;SDS011;6987;19.472;-99.276;2023-08-24T10:09:38;3.90;;;3.10;;
13832;SDS011;6987;19.472;-99.276;2023-08-24T10:12:08;3.35;;;3.08;;
13832;SDS011;6987;19.472;-99.276;2023-08-24T10:14:39;2.88;;;2.67;;
13832;SDS011;6987;19.472;-99.276;2023-08-24T10:17:11;2.85;;;2.75;;
13832;SDS011;6987;19.472;-99.276;2023-08-24T10:19:42;3.17;;;2.97;;
13832;SDS011;6987;19.472;-99.276;2023-08-24T10:22:11;5.32;;;3.20;;
13832;SDS011;6987;19.472;-99.276;2023-08-24T10:24:42;3.90;;;3.60;;
13832;SDS011;6987;19.472;-99.276;2023-08-24T10:27:12;4.43;;;4.03;;
13832;SDS011;6987;19.472;-99.276;2023-08-24T10:29:42;3.50;;;3.30;;
13832;SDS011;6987;19.472;-99.276;2023-08-24T10:32:11;4.20;;;3.80;;
13832;SDS011;6987;19.472;-99.276;2023-08-24T10:34:41;3.80;;;3.42;;
13832;SDS011;6987;19.472;-99.276;2023-08-24T10:37:11;4.05;;;3.75;;
13832;SDS011;6987;19.472;-99.276;2023-08-24T10:39:45;4.38;;;3.92;;
13832;SDS011;6987;19.472;-99.276;2023-08-24T10:42:14;4.00;;;3.70;;
13832;SDS011;6987;19.472;-99.276;2023-08-24T10:44:44;3.70;;;3.50;;
13832;SDS011;6987;19.472;-99.276;2023-08-24T10:47:13;3.95;;;3.53;;
13832;SDS011;6987;19.472;-99.276;2023-08-24T10:49:43;3.55;;;3.25;;
13832;SDS011;6987;19.472;-99.276;2023-08-24T10:52:18;3.50;;;3.30;;
13832;SDS011;6987;19.472;-99.276;2023-08-24T10:54:50;3.28;;;3.00;;
13832;SDS011;6987;19.472;-99.276;2023-08-24T10:57:19;3.80;;;3.50;;
13832;SDS011;6987;19.472;-99.276;2023-08-24T11:00:03;3.67;;;3.38;;
13832;SDS011;6987;19.472;-99.276;2023-08-24T11:02:43;3.90;;;3.60;;
13832;SDS011;6987;19.472;-99.276;2023-08-24T11:05:16;3.67;;;3.38;;
13832;SDS011;6987;19.472;-99.276;2023-08-24T11:07:51;3.67;;;3.38;;
13832;SDS011;6987;19.472;-99.276;2023-08-24T11:10:23;3.78;;;3.03;;
13832;SDS011;6987;19.472;-99.276;2023-08-24T11:13:04;4.38;;;3.35;;
13832;SDS011;6987;19.472;-99.276;2023-08-24T11:15:33;4.10;;;3.70;;
13832;SDS011;6987;19.472;-99.276;2023-08-24T11:18:21;3.80;;;3.50;;
13832;SDS011;6987;19.472;-99.276;2023-08-24T11:20:52;4.20;;;3.80;;
13832;SDS011;6987;19.472;-99.276;2023-08-24T11:23:22;4.32;;;3.95;;
13832;SDS011;6987;19.472;-99.276;2023-08-24T11:25:54;4.10;;;3.72;;
13832;SDS011;6987;19.472;-99.276;2023-08-24T11:28:25;4.10;;;3.80;;
13832;SDS011;6987;19.472;-99.276;2023-08-24T11:30:54;3.72;;;3.42;;
13832;SDS011;6987;19.472;-99.276;2023-08-24T11:33:29;3.72;;;3.42;;
13832;SDS011;6987;19.472;-99.276;2023-08-24T11:35:59;3.88;;;3.58;;
13832;SDS011;6987;19.472;-99.276;2023-08-24T11:38:35;4.13;;;3.83;;
13832;SDS011;6987;19.472;-99.276;2023-08-24T11:41:14;4.63;;;4.22;;
13832;SDS011;6987;19.472;-99.276;2023-08-24T11:43:43;3.70;;;3.40;;
13832;SDS011;6987;19.472;-99.276;2023-08-24T11:46:13;5.38;;;3.58;;
13832;SDS011;6987;19.472;-99.276;2023-08-24T11:48:42;4.57;;;3.70;;
13832;SDS011;6987;19.472;-99.276;2023-08-24T11:51:11;4.50;;;4.20;;
13832;SDS011;6987;19.472;-99.276;2023-08-24T11:53:40;4.18;;;3.78;;
13832;SDS011;6987;19.472;-99.276;2023-08-24T11:56:10;5.43;;;3.88;;
13832;SDS011;6987;19.472;-99.276;2023-08-24T11:58:41;3.22;;;3.03;;
13832;SDS011;6987;19.472;-99.276;2023-08-24T12:01:11;4.63;;;4.22;;
13832;SDS011;6987;19.472;-99.276;2023-08-24T12:03:40;4.88;;;4.47;;
13832;SDS011;6987;19.472;-99.276;2023-08-24T12:06:12;4.45;;;4.18;;
13832;SDS011;6987;19.472;-99.276;2023-08-24T12:08:42;4.97;;;4.55;;
13832;SDS011;6987;19.472;-99.276;2023-08-24T12:11:12;5.90;;;4.30;;
13832;SDS011;6987;19.472;-99.276;2023-08-24T12:13:46;4.20;;;3.90;;
13832;SDS011;6987;19.472;-99.276;2023-08-24T12:16:17;5.28;;;4.72;;
13832;SDS011;6987;19.472;-99.276;2023-08-24T12:18:52;5.35;;;4.95;;
13832;SDS011;6987;19.472;-99.276;2023-08-24T12:21:22;5.40;;;4.97;;
13832;SDS011;6987;19.472;-99.276;2023-08-24T12:23:58;4.93;;;4.43;;
13832;SDS011;6987;19.472;-99.276;2023-08-24T12:26:29;4.68;;;4.38;;
13832;SDS011;6987;19.472;-99.276;2023-08-24T12:29:03;4.53;;;4.13;;
13832;SDS011;6987;19.472;-99.276;2023-08-24T12:31:33;4.03;;;3.65;;
13832;SDS011;6987;19.472;-99.276;2023-08-24T12:34:03;4.22;;;3.70;;
13832;SDS011;6987;19.472;-99.276;2023-08-24T12:36:35;3.45;;;3.15;;
13832;SDS011;6987;19.472;-99.276;2023-08-24T12:39:07;3.00;;;2.80;;
13832;SDS011;6987;19.472;-99.276;2023-08-24T12:41:36;3.40;;;3.20;;
13832;SDS011;6987;19.472;-99.276;2023-08-24T12:44:08;3.20;;;2.90;;
13832;SDS011;6987;19.472;-99.276;2023-08-24T12:46:37;3.58;;;2.85;;
13832;SDS011;6987;19.472;-99.276;2023-08-24T12:49:07;4.55;;;3.08;;
13832;SDS011;6987;19.472;-99.276;2023-08-24T12:51:36;5.05;;;3.05;;
13832;SDS011;6987;19.472;-99.276;2023-08-24T12:54:07;3.20;;;2.83;;
13832;SDS011;6987;19.472;-99.276;2023-08-24T12:56:37;2.80;;;2.60;;
13832;SDS011;6987;19.472;-99.276;2023-08-24T12:59:09;2.72;;;2.53;;
13832;SDS011;6987;19.472;-99.276;2023-08-24T13:01:38;2.67;;;2.47;;
13832;SDS011;6987;19.472;-99.276;2023-08-24T13:04:08;2.38;;;1.80;;
13832;SDS011;6987;19.472;-99.276;2023-08-24T13:06:37;2.40;;;2.30;;
13832;SDS011;6987;19.472;-99.276;2023-08-24T13:09:06;2.88;;;2.30;;
13832;SDS011;6987;19.472;-99.276;2023-08-24T13:11:38;2.47;;;2.17;;
13832;SDS011;6987;19.472;-99.276;2023-08-24T13:14:07;3.03;;;2.25;;
13832;SDS011;6987;19.472;-99.276;2023-08-24T13:16:38;2.30;;;2.15;;
13832;SDS011;6987;19.472;-99.276;2023-08-24T13:19:07;2.50;;;2.30;;
13832;SDS011;6987;19.472;-99.276;2023-08-24T13:21:36;2.55;;;2.35;;
13832;SDS011;6987;19.472;-99.276;2023-08-24T13:24:05;2.33;;;2.13;;
13832;SDS011;6987;19.472;-99.276;2023-08-24T13:26:35;3.08;;;1.90;;
13832;SDS011;6987;19.472;-99.276;2023-08-24T13:29:04;2.25;;;2.15;;
13832;SDS011;6987;19.472;-99.276;2023-08-24T13:31:34;3.20;;;2.45;;
13832;SDS011;6987;19.472;-99.276;2023-08-24T13:34:05;2.55;;;2.35;;
13832;SDS011;6987;19.472;-99.276;2023-08-24T13:36:34;2.67;;;2.28;;
13832;SDS011;6987;19.472;-99.276;2023-08-24T13:39:05;2.70;;;2.50;;
13832;SDS011;6987;19.472;-99.276;2023-08-24T13:41:34;3.22;;;2.47;;
13832;SDS011;6987;19.472;-99.276;2023-08-24T13:44:05;3.47;;;2.25;;
13832;SDS011;6987;19.472;-99.276;2023-08-24T13:46:34;3.20;;;3.00;;
13832;SDS011;6987;19.472;-99.276;2023-08-24T13:49:05;2.80;;;2.60;;
13832;SDS011;6987;19.472;-99.276;2023-08-24T13:51:34;3.38;;;2.90;;
13832;SDS011;6987;19.472;-99.276;2023-08-24T13:54:11;3.78;;;2.75;;
13832;SDS011;6987;19.472;-99.276;2023-08-24T13:56:41;2.92;;;2.63;;
13832;SDS011;6987;19.472;-99.276;2023-08-24T13:59:10;3.25;;;3.05;;
13832;SDS011;6987;19.472;-99.276;2023-08-24T14:01:39;3.45;;;3.15;;
13832;SDS011;6987;19.472;-99.276;2023-08-24T14:04:10;3.78;;;2.97;;
13832;SDS011;6987;19.472;-99.276;2023-08-24T14:06:39;3.30;;;3.10;;
13832;SDS011;6987;19.472;-99.276;2023-08-24T14:09:08;3.80;;;2.47;;
13832;SDS011;6987;19.472;-99.276;2023-08-24T14:11:37;2.85;;;2.65;;
13832;SDS011;6987;19.472;-99.276;2023-08-24T14:14:07;2.13;;;1.77;;
13832;SDS011;6987;19.472;-99.276;2023-08-24T14:16:38;2.20;;;2.00;;
13832;SDS011;6987;19.472;-99.276;2023-08-24T14:19:07;3.05;;;2.10;;
13832;SDS011;6987;19.472;-99.276;2023-08-24T14:21:39;2.20;;;1.67;;
13832;SDS011;6987;19.472;-99.276;2023-08-24T14:24:07;1.88;;;1.77;;
13832;SDS011;6987;19.472;-99.276;2023-08-24T14:26:36;1.65;;;1.48;;
13832;SDS011;6987;19.472;-99.276;2023-08-24T14:29:11;3.72;;;1.83;;
13832;SDS011;6987;19.472;-99.276;2023-08-24T14:31:40;2.00;;;1.90;;
13832;SDS011;6987;19.472;-99.276;2023-08-24T14:34:09;2.90;;;1.67;;
13832;SDS011;6987;19.472;-99.276;2023-08-24T14:36:41;2.08;;;1.98;;
13832;SDS011;6987;19.472;-99.276;2023-08-24T14:39:09;1.98;;;1.83;;
13832;SDS011;6987;19.472;-99.276;2023-08-24T14:41:39;1.83;;;1.63;;
13832;SDS011;6987;19.472;-99.276;2023-08-24T14:44:08;2.55;;;2.20;;
13832;SDS011;6987;19.472;-99.276;2023-08-24T14:46:37;3.65;;;1.77;;
13832;SDS011;6987;19.472;-99.276;2023-08-24T14:49:06;2.58;;;2.20;;
13832;SDS011;6987;19.472;-99.276;2023-08-24T14:51:36;3.42;;;2.67;;
13832;SDS011;6987;19.472;-99.276;2023-08-24T14:54:08;2.85;;;2.40;;
13832;SDS011;6987;19.472;-99.276;2023-08-24T14:56:39;2.67;;;2.47;;
13832;SDS011;6987;19.472;-99.276;2023-08-24T14:59:08;3.30;;;2.28;;
13832;SDS011;6987;19.472;-99.276;2023-08-24T15:01:37;2.30;;;2.20;;